This is the latest recevied weather packets stored in our database for station/object EFOU. If no packets are shown the sender has not sent any weather packets the latest 1 day(s).
| Time | Temp. | Humidity | Pressure | Rain* | Wind** | Luminosity | Snow |
|---|---|---|---|---|---|---|---|
| 1777997235 | 6.11° C | 65% | 998.3 hPa | - | 7.15 m/s, 283° | - | - |
| 1777996035 | 6.67° C | 64% | 998.2 hPa | - | 6.71 m/s, 281° | - | - |
| 1777994834 | 6.67° C | 61% | 998 hPa | - | 7.15 m/s, 277° | - | - |
| 1777993635 | 6.67° C | 61% | 997.8 hPa | - | 8.05 m/s, 281° | - | - |
| 1777992434 | 6.67° C | 61% | 997.6 hPa | - | 7.6 m/s, 284° | - | - |
| 1777991234 | 7.22° C | 60% | 997.5 hPa | - | 7.15 m/s, 278° | - | - |
| 1777990034 | 6.11° C | 64% | 997.4 hPa | - | 6.71 m/s, 273° | - | - |
| 1777988834 | 7.22° C | 58% | 997.2 hPa | - | 6.71 m/s, 269° | - | - |
| 1777987634 | 6.67° C | 58% | 997 hPa | - | 6.71 m/s, 268° | - | - |
| 1777986434 | 6.67° C | 58% | 996.9 hPa | - | 6.71 m/s, 267° | - | - |
| 1777985234 | 6.67° C | 57% | 996.6 hPa | - | 7.15 m/s, 272° | - | - |
| 1777984034 | 6.11° C | 55% | 996.5 hPa | - | 6.26 m/s, 280° | - | - |
| 1777982834 | 6.11° C | 59% | 996.5 hPa | - | 6.71 m/s, 269° | - | - |
| 1777981634 | 6.67° C | 60% | 996.2 hPa | - | 6.71 m/s, 270° | - | - |
| 1777980434 | 6.11° C | 63% | 995.9 hPa | - | 8.05 m/s, 282° | - | - |
| 1777979234 | 5.56° C | 68% | 995.8 hPa | - | 7.6 m/s, 280° | - | - |
| 1777978033 | 5.56° C | 71% | 995.5 hPa | - | 6.26 m/s, 283° | - | - |
| 1777976833 | 5° C | 74% | 995.3 hPa | - | 7.15 m/s, 280° | - | - |
| 1777975633 | 4.44° C | 75% | 995.1 hPa | - | 7.15 m/s, 295° | - | - |
| 1777974433 | 3.89° C | 82% | 995 hPa | - | 6.26 m/s, 286° | - | - |
| 1777973233 | 3.33° C | 82% | 994.8 hPa | - | 7.15 m/s, 281° | - | - |
| 1777972033 | 3.89° C | 81% | 994.6 hPa | - | 5.81 m/s, 270° | - | - |
| 1777970833 | 4.44° C | 77% | 994.4 hPa | - | 5.81 m/s, 268° | - | - |
* Rain since midnight (hover to see other rain measurements)
** Current wind speed in m/s (hover to see current wind gust speed)